Time;durP1;ratioP1;P1;durP2;ratioP2;P2;SDS_P1;SDS_P2;PMS_P1;PMS_P2;Temp;Humidity;BMP_temperature;BMP_pressure;BME280_temperature;BME280_humidity;BME280_pressure;Samples;Min_cycle;Max_cycle;Signal;HPM_P1;HPM_P2
2023/06/04 12:23:34;;;;;;;4.93;3.60;;;;;;;26.22;61.07;100147.88;10356015;28;98499;-79
2023/06/04 12:28:41;;;;;;;5.88;4.18;;;;;;;26.47;60.33;100138.91;10351269;28;96880;-79
2023/06/04 12:33:51;;;;;;;6.88;4.35;;;;;;;26.68;60.73;100139.28;10356138;28;98546;-79
2023/06/04 12:39:22;;;;;;;4.97;3.97;;;;;;;26.61;57.25;100127.47;10359274;28;96829;-80
2023/06/04 12:50:28;;;;;;;6.65;4.90;;;;;;;27.05;58.26;100115.38;10360441;28;96878;-79
2023/06/04 12:56:00;;;;;;;6.97;4.97;;;;;;;26.85;56.98;100111.28;10356434;28;97069;-80
2023/06/04 13:01:13;;;;;;;7.00;5.20;;;;;;;27.09;58.40;100122.13;10353565;28;98993;-80
2023/06/04 13:06:18;;;;;;;6.95;5.35;;;;;;;27.09;57.69;100124.00;10359572;28;96844;-79
2023/06/04 13:11:24;;;;;;;7.15;5.20;;;;;;;27.08;57.19;100117.72;10356749;28;97272;-81
2023/06/04 13:16:27;;;;;;;7.63;5.53;;;;;;;27.31;57.41;100117.88;10340610;28;96642;-78
2023/06/04 13:21:31;;;;;;;8.68;5.72;;;;;;;27.42;56.94;100115.69;10360448;28;97647;-78
2023/06/04 13:26:36;;;;;;;9.50;6.10;;;;;;;27.45;56.61;100106.38;10354432;28;96876;-77
2023/06/04 13:31:40;;;;;;;8.60;6.20;;;;;;;27.61;57.03;100109.06;10341086;28;96977;-78
2023/06/04 13:36:43;;;;;;;11.15;7.07;;;;;;;27.80;56.48;100106.00;10328442;28;97094;-81
2023/06/04 13:41:48;;;;;;;10.27;7.07;;;;;;;27.75;56.42;100117.31;10314023;28;96683;-79
2023/06/04 13:46:51;;;;;;;11.35;7.55;;;;;;;27.56;56.04;100128.50;10328259;28;96775;-79
2023/06/04 13:51:54;;;;;;;10.52;7.00;;;;;;;27.88;56.00;100131.16;10341352;28;97019;-79
2023/06/04 13:57:03;;;;;;;13.63;8.30;;;;;;;27.21;54.22;100131.59;10322808;28;97741;-77
2023/06/04 14:02:07;;;;;;;10.63;7.18;;;;;;;27.00;54.59;100121.25;10318151;28;97643;-77
2023/06/04 14:07:10;;;;;;;10.73;6.72;;;;;;;27.17;55.28;100130.22;10335404;28;96780;-77
2023/06/04 14:12:17;;;;;;;9.75;6.50;;;;;;;27.32;55.16;100135.81;10331527;28;96855;-77
2023/06/04 14:17:21;;;;;;;10.00;5.85;;;;;;;27.20;55.19;100147.97;10335575;28;97118;-79
2023/06/04 14:22:24;;;;;;;8.23;5.97;;;;;;;27.62;54.30;100144.03;10332181;28;98534;-77
2023/06/04 14:27:29;;;;;;;8.13;5.40;;;;;;;27.43;54.41;100140.84;10329955;28;97693;-77
2023/06/04 14:32:33;;;;;;;8.68;5.47;;;;;;;27.58;53.81;100136.47;10324909;28;98161;-78
2023/06/04 14:37:37;;;;;;;9.32;5.97;;;;;;;27.45;53.92;100130.72;10325514;28;96752;-79
2023/06/04 14:42:41;;;;;;;6.57;4.32;;;;;;;27.53;53.31;100136.13;10327360;28;96897;-79
2023/06/04 14:47:46;;;;;;;6.32;4.15;;;;;;;27.60;53.29;100129.00;10326456;28;96810;-94
2023/06/04 14:52:50;;;;;;;6.53;4.38;;;;;;;26.83;52.45;100114.16;10326798;28;96994;-84
2023/06/04 14:57:55;;;;;;;5.82;3.67;;;;;;;27.44;52.06;100120.94;10326784;28;97650;-85
2023/06/04 15:02:59;;;;;;;4.88;3.30;;;;;;;27.13;52.13;100117.25;10334228;28;97524;-84
2023/06/04 15:08:04;;;;;;;4.85;3.20;;;;;;;27.31;51.39;100115.19;10324027;28;96797;-85
2023/06/04 15:13:09;;;;;;;4.68;3.55;;;;;;;26.60;51.91;100096.91;10311053;28;98925;-84
2023/06/04 15:18:12;;;;;;;4.28;3.08;;;;;;;26.46;51.56;100105.66;10322549;28;96890;-84
2023/06/04 15:23:17;;;;;;;5.95;4.13;;;;;;;26.84;52.38;100099.63;10317845;28;96936;-83
2023/06/04 15:28:22;;;;;;;7.70;4.78;;;;;;;26.52;53.80;100113.09;10324151;28;97207;-83
2023/06/04 15:33:25;;;;;;;7.18;4.70;;;;;;;26.44;54.25;100123.88;10320023;28;96899;-83
2023/06/04 15:38:29;;;;;;;7.00;4.63;;;;;;;26.65;54.40;100131.50;10329714;28;96933;-83
2023/06/04 15:43:35;;;;;;;7.38;5.10;;;;;;;26.52;54.63;100150.91;10330839;28;97416;-83
2023/06/04 15:48:56;;;;;;;6.82;4.97;;;;;;;26.61;54.91;100157.16;10322689;28;97752;-83
2023/06/04 15:54:01;;;;;;;6.53;4.63;;;;;;;26.51;55.07;100162.69;10320112;28;96796;-82
2023/06/04 15:59:05;;;;;;;6.70;5.03;;;;;;;26.37;55.86;100174.09;10324735;28;96805;-83
2023/06/04 16:04:09;;;;;;;7.45;4.63;;;;;;;26.25;55.87;100182.59;10322083;28;99001;-82
2023/06/04 16:09:12;;;;;;;6.38;4.80;;;;;;;26.10;56.65;100173.44;10322290;28;96875;-83
2023/06/04 16:14:17;;;;;;;6.73;4.83;;;;;;;26.03;57.05;100170.56;10315512;28;98654;-83
2023/06/04 16:19:20;;;;;;;6.90;4.70;;;;;;;25.64;58.08;100171.97;10309428;28;96875;-83
2023/06/04 16:24:24;;;;;;;7.40;4.68;;;;;;;25.53;58.15;100169.53;10326668;28;97169;-83
2023/06/04 16:29:29;;;;;;;6.57;4.43;;;;;;;25.50;58.11;100157.22;10324962;28;96772;-83
2023/06/04 16:34:32;;;;;;;6.93;4.47;;;;;;;25.38;58.90;100150.38;10316515;28;97016;-83
2023/06/04 16:39:36;;;;;;;6.13;4.30;;;;;;;25.20;58.29;100149.59;10321004;28;97053;-83
2023/06/04 16:44:40;;;;;;;7.33;4.73;;;;;;;24.98;58.98;100154.56;10322363;28;96901;-82
2023/06/04 16:49:44;;;;;;;6.38;4.43;;;;;;;25.02;59.38;100154.13;10321778;28;96866;-81
2023/06/04 16:54:47;;;;;;;7.23;4.70;;;;;;;24.97;59.39;100145.63;10323168;28;96871;-78
2023/06/04 16:59:51;;;;;;;6.10;4.60;;;;;;;24.96;59.43;100141.25;10326844;28;98350;-80
2023/06/04 17:04:55;;;;;;;6.40;4.75;;;;;;;25.02;59.51;100137.97;10320612;28;97803;-80
2023/06/04 17:09:58;;;;;;;6.50;4.57;;;;;;;25.04;59.25;100146.75;10338675;28;97738;-82
2023/06/04 17:15:03;;;;;;;8.17;5.03;;;;;;;25.00;59.29;100147.22;10327251;28;98484;-81
2023/06/04 17:20:07;;;;;;;7.30;5.07;;;;;;;24.91;59.45;100158.88;10337781;28;97376;-79
2023/06/04 17:25:11;;;;;;;6.45;4.45;;;;;;;24.80;59.39;100166.19;10332798;28;97002;-76
2023/06/04 17:30:16;;;;;;;7.23;5.20;;;;;;;24.84;59.27;100158.66;10321615;28;98410;-81
2023/06/04 17:35:20;;;;;;;7.07;5.13;;;;;;;24.77;59.30;100160.25;10310158;28;96822;-80
2023/06/04 17:40:23;;;;;;;8.87;5.50;;;;;;;24.76;59.45;100167.47;10343778;28;96774;-79
2023/06/04 17:45:31;;;;;;;6.80;4.68;;;;;;;24.75;59.68;100155.03;10319683;28;96898;-79
2023/06/04 17:50:35;;;;;;;7.75;5.20;;;;;;;24.71;59.91;100163.53;10344078;28;97633;-79
2023/06/04 17:55:39;;;;;;;7.70;5.40;;;;;;;24.57;60.44;100161.38;10331791;28;98710;-79
2023/06/04 18:00:44;;;;;;;8.50;5.03;;;;;;;24.39;60.79;100168.59;10326847;28;97443;-79
2023/06/04 18:06:05;;;;;;;8.00;5.75;;;;;;;24.38;60.74;100175.78;10305683;22;98949;-80
2023/06/04 18:11:09;;;;;;;;;;;;;;;24.26;61.24;100182.34;10266642;28;97537;-79
2023/06/04 18:16:14;;;;;;;8.13;5.38;;;;;;;24.14;61.33;100186.22;10277407;28;98402;-78
2023/06/04 18:21:18;;;;;;;7.72;5.57;;;;;;;24.10;61.56;100203.63;10264943;28;97053;-78
2023/06/04 18:26:21;;;;;;;8.00;5.80;;;;;;;24.11;61.64;100210.72;10265991;28;96785;-78
2023/06/04 18:31:26;;;;;;;8.07;5.53;;;;;;;24.02;62.04;100211.59;10260762;28;96811;-78
2023/06/04 18:36:29;;;;;;;8.10;5.47;;;;;;;24.00;62.20;100212.72;10279148;28;97468;-76
2023/06/04 18:41:32;;;;;;;9.13;5.60;;;;;;;23.84;62.54;100207.97;10274426;28;97118;-77
2023/06/04 18:46:37;;;;;;;7.57;5.37;;;;;;;23.70;62.54;100221.88;10277035;28;96935;-85
2023/06/04 18:51:42;;;;;;;7.95;5.50;;;;;;;23.33;63.06;100220.91;10250990;28;96837;-82
2023/06/04 18:56:46;;;;;;;8.82;5.47;;;;;;;23.37;62.69;100236.56;10254888;28;96880;-83
2023/06/04 19:01:51;;;;;;;7.63;5.10;;;;;;;23.25;62.47;100237.72;10250439;28;98759;-84
2023/06/04 19:06:55;;;;;;;7.18;5.50;;;;;;;23.19;62.70;100240.13;10251313;28;96862;-89
2023/06/04 19:11:58;;;;;;;7.75;5.30;;;;;;;23.08;62.49;100245.59;10245287;28;97057;-83
2023/06/04 19:17:03;;;;;;;7.10;4.93;;;;;;;23.07;62.60;100254.66;10254499;28;97117;-82
2023/06/04 19:22:06;;;;;;;8.57;4.93;;;;;;;23.01;62.46;100244.50;10256521;28;96763;-82
2023/06/04 19:27:10;;;;;;;7.10;4.93;;;;;;;22.95;62.34;100243.22;10256644;28;97022;-82
2023/06/04 19:32:14;;;;;;;7.10;4.80;;;;;;;22.79;62.83;100242.03;10256352;28;96664;-82
2023/06/04 19:37:18;;;;;;;6.13;4.38;;;;;;;22.84;62.64;100247.84;10257353;28;96809;-82
2023/06/04 19:42:22;;;;;;;7.55;5.18;;;;;;;22.85;62.86;100258.47;10256402;28;96591;-82
2023/06/04 19:47:27;;;;;;;6.15;4.60;;;;;;;22.79;62.99;100258.13;10253382;28;96803;-82
2023/06/04 19:52:31;;;;;;;6.60;4.72;;;;;;;22.78;62.94;100264.50;10255959;28;96759;-82
2023/06/04 19:57:34;;;;;;;8.13;5.10;;;;;;;22.69;63.23;100263.47;10256568;28;96775;-82
2023/06/04 20:02:39;;;;;;;6.77;4.73;;;;;;;22.41;64.36;100270.41;10256002;28;97519;-82
2023/06/04 20:07:43;;;;;;;7.30;4.80;;;;;;;22.45;64.33;100277.19;10255179;28;99400;-82
2023/06/04 20:12:46;;;;;;;7.03;4.83;;;;;;;22.30;64.86;100280.38;10271852;28;96719;-82
2023/06/04 20:17:50;;;;;;;6.45;4.43;;;;;;;22.18;64.99;100284.97;10296445;28;97141;-82
2023/06/04 20:22:54;;;;;;;7.88;5.07;;;;;;;22.16;65.04;100288.78;10296405;28;96522;-81
2023/06/04 20:27:57;;;;;;;7.30;4.85;;;;;;;22.11;65.37;100291.84;10294830;28;97157;-82
2023/06/04 20:33:02;;;;;;;7.40;4.93;;;;;;;22.04;65.42;100305.94;10295705;28;96687;-81
2023/06/04 20:38:06;;;;;;;7.88;5.00;;;;;;;21.92;65.65;100307.78;10294397;28;96760;-82
2023/06/04 20:43:09;;;;;;;8.55;5.30;;;;;;;21.76;66.66;100314.59;10259696;28;96743;-82
2023/06/04 20:48:15;;;;;;;6.33;4.90;;;;;;;21.71;66.85;100325.66;10284881;28;96653;-82
2023/06/04 20:53:19;;;;;;;7.45;5.00;;;;;;;21.67;66.99;100328.75;10260115;28;97557;-82
2023/06/04 20:58:22;;;;;;;7.63;5.13;;;;;;;21.70;66.75;100328.47;10260752;28;96711;-82
2023/06/04 21:03:27;;;;;;;6.28;4.90;;;;;;;21.51;67.63;100331.84;10273484;28;96748;-81
2023/06/04 21:08:31;;;;;;;8.25;5.15;;;;;;;21.46;67.61;100331.41;10300113;28;96941;-81
2023/06/04 21:13:34;;;;;;;6.93;4.85;;;;;;;21.34;68.07;100324.38;10299128;28;96828;-81
2023/06/04 21:18:39;;;;;;;7.77;4.73;;;;;;;21.21;68.53;100334.38;10299826;28;96734;-82
2023/06/04 21:23:42;;;;;;;9.02;5.72;;;;;;;21.23;68.19;100337.78;10259519;28;97474;-82
2023/06/04 21:29:03;;;;;;;8.70;5.10;;;;;;;21.20;68.11;100349.63;10256818;28;96968;-81
2023/06/04 21:34:07;;;;;;;7.97;5.68;;;;;;;21.09;68.36;100348.72;10258504;28;96750;-81
2023/06/04 21:39:11;;;;;;;7.15;4.70;;;;;;;21.20;68.11;100346.94;10249472;28;96906;-81
2023/06/04 21:44:14;;;;;;;8.20;5.43;;;;;;;20.99;68.93;100343.28;10218045;28;96854;-82
2023/06/04 21:49:36;;;;;;;7.40;4.93;;;;;;;21.05;68.29;100348.13;10215722;28;97838;-81
2023/06/04 21:54:57;;;;;;;7.25;5.20;;;;;;;21.01;68.68;100340.50;10235253;28;96768;-81
2023/06/04 22:00:00;;;;;;;7.47;5.10;;;;;;;20.97;68.75;100341.69;10258086;28;97511;-81
2023/06/04 22:05:05;;;;;;;8.00;5.15;;;;;;;20.87;69.14;100344.28;10256662;28;97161;-81
2023/06/04 22:10:09;;;;;;;8.05;5.30;;;;;;;20.70;69.47;100334.09;10257968;28;96904;-81
2023/06/04 22:15:30;;;;;;;7.38;5.15;;;;;;;20.45;70.40;100333.47;10251194;28;97797;-81
2023/06/04 22:20:35;;;;;;;8.52;5.63;;;;;;;20.57;70.29;100335.19;10256960;28;96792;-82
2023/06/04 22:25:55;;;;;;;8.77;5.70;;;;;;;20.44;70.37;100332.63;10255611;28;97877;-82
2023/06/04 22:30:58;;;;;;;8.40;5.32;;;;;;;20.36;70.83;100338.56;10257574;28;96968;-81
2023/06/04 22:36:03;;;;;;;7.85;4.78;;;;;;;20.38;70.44;100344.66;10256470;28;97266;-81
2023/06/04 22:41:06;;;;;;;7.45;5.05;;;;;;;20.39;70.61;100342.84;10232243;28;96971;-81
2023/06/04 22:46:10;;;;;;;8.23;5.45;;;;;;;20.33;70.64;100348.66;10236617;28;97108;-82
2023/06/04 22:51:16;;;;;;;8.65;5.18;;;;;;;20.17;71.01;100345.44;10256521;28;96648;-81
2023/06/04 22:56:20;;;;;;;9.40;5.72;;;;;;;20.21;71.06;100346.91;10255214;28;96639;-81
2023/06/04 23:01:23;;;;;;;8.10;5.55;;;;;;;20.24;70.62;100366.22;10256653;28;97599;-81
2023/06/04 23:06:28;;;;;;;7.95;5.35;;;;;;;19.94;71.60;100360.56;10254406;28;96727;-82
2023/06/04 23:11:32;;;;;;;9.40;4.80;;;;;;;19.95;71.64;100361.41;10256160;28;97373;-81
2023/06/04 23:16:35;;;;;;;8.65;5.40;;;;;;;19.95;71.67;100354.25;10255594;28;96780;-81
2023/06/04 23:21:40;;;;;;;9.13;5.68;;;;;;;19.98;71.27;100362.03;10256192;28;96740;-81
2023/06/04 23:26:43;;;;;;;10.00;5.20;;;;;;;19.92;71.65;100358.97;10255882;28;96844;-81
2023/06/04 23:32:04;;;;;;;6.97;4.78;;;;;;;19.82;71.85;100368.66;10253946;28;97583;-81
2023/06/04 23:37:09;;;;;;;10.20;5.70;;;;;;;19.70;72.21;100359.75;10253769;28;96941;-81
2023/06/04 23:42:12;;;;;;;8.77;5.90;;;;;;;19.59;72.45;100351.72;10250863;28;97619;-81
2023/06/04 23:47:15;;;;;;;8.15;5.35;;;;;;;19.67;72.31;100346.63;10253626;28;96804;-81
2023/06/04 23:52:21;;;;;;;10.40;5.70;;;;;;;19.67;72.36;100351.97;10254411;28;97985;-81
2023/06/04 23:57:41;;;;;;;8.65;5.43;;;;;;;19.72;72.18;100359.66;10254325;28;96730;-81
